createdAt,value
2023-03-21T00:02:16.758Z,24.27
2023-03-21T00:04:52.428Z,19.67
2023-03-21T00:07:23.119Z,20.17
2023-03-21T00:09:53.666Z,18.47
2023-03-21T00:12:23.856Z,16.47
2023-03-21T00:14:54.213Z,17.87
2023-03-21T00:17:23.667Z,21.63
2023-03-21T00:19:55.574Z,20.10
2023-03-21T00:22:24.309Z,22.87
2023-03-21T00:24:53.435Z,22.57
2023-03-21T00:27:43.026Z,23.27
2023-03-21T00:30:14.615Z,28.10
2023-03-21T00:32:55.218Z,25.10
2023-03-21T00:35:57.792Z,25.90
2023-03-21T00:38:13.119Z,27.93
2023-03-21T00:40:48.730Z,25.57
2023-03-21T00:43:19.659Z,27.83
2023-03-21T00:45:50.627Z,22.33
2023-03-21T00:48:19.822Z,19.77
2023-03-21T00:50:48.604Z,24.50
2023-03-21T00:53:17.474Z,24.47
2023-03-21T00:55:46.300Z,21.80
2023-03-21T00:58:15.516Z,20.83
2023-03-21T01:00:44.325Z,19.03
2023-03-21T01:03:24.539Z,23.17
2023-03-21T01:06:07.202Z,21.17
2023-03-21T01:08:52.308Z,17.67
2023-03-21T01:11:23.672Z,17.77
2023-03-21T01:13:57.968Z,20.53
2023-03-21T01:16:35.668Z,23.60
2023-03-21T01:19:14.774Z,18.10
2023-03-21T01:21:46.904Z,21.03
2023-03-21T01:24:15.835Z,22.80
2023-03-21T01:26:44.616Z,20.00
2023-03-21T01:29:13.207Z,21.10
2023-03-21T01:31:41.808Z,21.17
2023-03-21T01:34:11.825Z,21.13
2023-03-21T01:36:40.450Z,20.70
2023-03-21T01:39:09.010Z,19.73
2023-03-21T01:41:44.548Z,20.07
2023-03-21T01:44:17.939Z,22.63
2023-03-21T01:47:14.174Z,21.37
2023-03-21T01:49:46.179Z,19.97
2023-03-21T01:52:33.486Z,21.00
2023-03-21T01:55:08.026Z,21.23
2023-03-21T01:57:49.396Z,20.33
2023-03-21T02:00:25.115Z,21.30
2023-03-21T02:02:58.231Z,23.30
2023-03-21T02:05:42.547Z,21.70
2023-03-21T02:08:11.100Z,23.03
2023-03-21T02:10:39.574Z,24.37
2023-03-21T02:13:09.738Z,22.07
2023-03-21T02:15:39.988Z,22.87
2023-03-21T02:18:14.302Z,23.27
2023-03-21T02:21:29.350Z,22.67
2023-03-21T02:24:17.690Z,20.07
2023-03-21T02:27:06.679Z,19.20
2023-03-21T02:30:29.640Z,20.97
2023-03-21T02:33:45.085Z,23.47
2023-03-21T02:36:28.410Z,18.53
2023-03-21T02:39:08.066Z,20.93
2023-03-21T02:41:48.991Z,23.30
2023-03-21T02:44:24.406Z,22.80
2023-03-21T02:47:06.083Z,19.90
2023-03-21T02:49:43.083Z,20.00
2023-03-21T02:52:25.752Z,17.97
2023-03-21T02:55:13.811Z,22.93
2023-03-21T02:57:45.357Z,21.53
2023-03-21T03:00:19.066Z,27.00
2023-03-21T03:02:54.599Z,25.20
2023-03-21T03:05:30.638Z,21.10
2023-03-21T03:08:12.759Z,26.07
2023-03-21T03:11:09.108Z,24.20
2023-03-21T03:13:53.378Z,27.53
2023-03-21T03:16:36.763Z,29.10
2023-03-21T03:19:10.770Z,28.40
2023-03-21T03:21:42.784Z,27.00
2023-03-21T03:24:16.806Z,25.10
2023-03-21T03:26:52.159Z,24.37
2023-03-21T03:29:22.846Z,27.60
2023-03-21T03:31:56.999Z,25.83
2023-03-21T03:34:32.789Z,31.93
2023-03-21T03:37:05.391Z,26.73
2023-03-21T03:39:39.473Z,28.80
2023-03-21T03:42:27.171Z,30.93
2023-03-21T03:44:57.316Z,28.30
2023-03-21T03:47:37.837Z,26.87
2023-03-21T03:50:17.990Z,26.80
2023-03-21T03:52:56.996Z,24.43
2023-03-21T03:55:34.705Z,27.07
2023-03-21T03:58:06.454Z,23.87
2023-03-21T04:00:42.019Z,29.37
2023-03-21T04:03:11.222Z,26.47
2023-03-21T04:05:39.786Z,23.33
2023-03-21T04:08:08.668Z,24.73
2023-03-21T04:10:37.468Z,24.93
2023-03-21T04:13:07.551Z,22.77
2023-03-21T04:15:36.702Z,22.17
2023-03-21T04:18:06.180Z,23.00
2023-03-21T04:20:37.269Z,19.13
2023-03-21T04:23:06.492Z,24.50
2023-03-21T04:25:38.651Z,23.40
2023-03-21T04:28:10.421Z,19.67
2023-03-21T04:30:40.867Z,22.63
2023-03-21T04:33:09.818Z,21.17
2023-03-21T04:35:38.469Z,21.70
2023-03-21T04:38:07.064Z,21.50
2023-03-21T04:40:35.840Z,19.77
2023-03-21T04:43:04.842Z,19.77
2023-03-21T04:45:34.765Z,21.20
2023-03-21T04:48:04.575Z,19.70
2023-03-21T04:50:33.262Z,19.63
2023-03-21T04:53:01.946Z,20.97
2023-03-21T04:55:32.545Z,22.07
2023-03-21T04:58:01.423Z,22.23
2023-03-21T05:00:30.643Z,18.00
2023-03-21T05:03:01.273Z,20.27
2023-03-21T05:05:29.772Z,18.00
2023-03-21T05:07:58.329Z,17.87
2023-03-21T05:10:27.230Z,18.10
2023-03-21T05:12:55.753Z,19.03
2023-03-21T05:15:24.245Z,19.93
2023-03-21T05:17:52.727Z,17.73
2023-03-21T05:20:23.005Z,19.73
2023-03-21T05:22:51.905Z,17.13
2023-03-21T05:25:35.133Z,18.93
2023-03-21T05:28:03.814Z,19.27
2023-03-21T05:30:32.524Z,20.30
2023-03-21T05:33:01.737Z,19.60
2023-03-21T05:35:32.144Z,15.87
2023-03-21T05:38:00.674Z,21.90
2023-03-21T05:40:30.006Z,18.43
2023-03-21T05:42:58.641Z,18.33
2023-03-21T05:45:27.346Z,17.30
2023-03-21T05:47:55.894Z,15.77
2023-03-21T05:50:24.377Z,15.90
2023-03-21T05:52:54.440Z,20.03
2023-03-21T05:55:22.962Z,16.37
2023-03-21T05:57:52.174Z,19.40
2023-03-21T06:00:22.415Z,22.17
2023-03-21T06:02:51.090Z,16.93
2023-03-21T06:05:19.654Z,15.40
2023-03-21T06:07:48.257Z,17.67
2023-03-21T06:10:18.843Z,22.20
2023-03-21T06:12:47.516Z,19.43
2023-03-21T06:15:16.808Z,17.47
2023-03-21T06:17:45.258Z,22.13
2023-03-21T06:20:14.592Z,20.40
2023-03-21T06:22:43.655Z,15.30
2023-03-21T06:25:12.428Z,17.90
2023-03-21T06:27:42.651Z,20.53
2023-03-21T06:30:12.799Z,23.27
2023-03-21T06:32:41.419Z,17.27
2023-03-21T06:35:10.619Z,17.37
2023-03-21T06:37:39.538Z,20.57
2023-03-21T06:40:09.954Z,20.50
2023-03-21T06:42:38.572Z,20.60
2023-03-21T06:45:09.721Z,20.93
2023-03-21T06:47:38.682Z,18.77
2023-03-21T06:50:08.113Z,27.50
2023-03-21T06:52:36.701Z,21.87
2023-03-21T06:55:06.113Z,25.83
2023-03-21T06:57:35.060Z,23.50
2023-03-21T07:00:07.974Z,23.80
2023-03-21T07:02:38.532Z,20.83
2023-03-21T07:05:08.266Z,23.73
2023-03-21T07:07:37.153Z,26.60
2023-03-21T07:10:06.514Z,19.50
2023-03-21T07:12:36.170Z,25.93
2023-03-21T07:15:06.981Z,24.47
2023-03-21T07:17:35.909Z,28.90
2023-03-21T07:20:08.778Z,26.77
2023-03-21T07:22:37.650Z,23.93
2023-03-21T07:25:08.071Z,24.77
2023-03-21T07:27:39.154Z,26.27
2023-03-21T07:30:12.186Z,19.33
2023-03-21T07:32:41.588Z,24.47
2023-03-21T07:35:14.482Z,26.13
2023-03-21T07:37:43.025Z,23.57
2023-03-21T07:40:13.452Z,23.77
2023-03-21T07:42:42.610Z,19.30
2023-03-21T07:45:16.499Z,22.93
2023-03-21T07:47:47.268Z,20.33
2023-03-21T07:50:17.566Z,22.37
2023-03-21T07:52:46.649Z,24.07
2023-03-21T07:55:17.452Z,27.53
2023-03-21T07:57:47.621Z,23.57
2023-03-21T08:00:23.180Z,28.33
2023-03-21T08:02:58.048Z,27.20
2023-03-21T08:05:31.365Z,24.50
2023-03-21T08:08:00.149Z,25.13
2023-03-21T08:10:28.935Z,25.90
2023-03-21T08:12:57.744Z,22.13
2023-03-21T08:15:26.673Z,25.07
2023-03-21T08:17:55.503Z,27.07
2023-03-21T08:20:24.779Z,23.83
2023-03-21T08:22:55.353Z,21.83
2023-03-21T08:25:24.387Z,28.23
2023-03-21T08:27:53.345Z,18.83
2023-03-21T08:30:26.337Z,19.60
2023-03-21T08:33:01.144Z,24.43
2023-03-21T08:35:31.712Z,18.73
2023-03-21T08:38:04.502Z,17.47
2023-03-21T08:40:33.191Z,18.87
2023-03-21T08:43:01.943Z,18.63
2023-03-21T08:45:30.742Z,16.20
2023-03-21T08:47:59.447Z,20.77
2023-03-21T08:50:31.813Z,19.57
2023-03-21T08:53:02.687Z,20.43
2023-03-21T08:55:31.766Z,14.73
2023-03-21T08:58:00.384Z,14.30
2023-03-21T09:00:29.437Z,19.13
2023-03-21T09:02:59.056Z,16.90
2023-03-21T09:05:28.633Z,21.30
2023-03-21T09:07:57.967Z,18.00
2023-03-21T09:10:28.258Z,16.23
2023-03-21T09:12:57.597Z,17.63
2023-03-21T09:15:29.985Z,15.27
2023-03-21T09:18:13.509Z,16.27
2023-03-21T09:20:43.236Z,18.73
2023-03-21T09:23:13.380Z,15.17
2023-03-21T09:25:46.208Z,17.97
2023-03-21T09:28:14.970Z,17.47
2023-03-21T09:30:43.881Z,15.00
2023-03-21T09:33:19.946Z,15.90
2023-03-21T09:35:50.737Z,14.33
2023-03-21T09:38:20.892Z,16.20
2023-03-21T09:41:05.936Z,16.77
2023-03-21T09:43:47.898Z,15.37
2023-03-21T09:46:26.036Z,15.13
2023-03-21T09:49:00.349Z,13.03
2023-03-21T09:51:34.750Z,13.13
2023-03-21T09:54:09.186Z,14.07
2023-03-21T09:56:43.240Z,14.50
2023-03-21T09:59:23.360Z,13.63
2023-03-21T10:01:52.264Z,16.10
2023-03-21T10:04:22.454Z,15.87
2023-03-21T10:06:58.728Z,14.30
2023-03-21T10:09:29.572Z,16.27
2023-03-21T10:12:08.424Z,18.50
2023-03-21T10:14:42.869Z,21.87
2023-03-21T10:17:28.441Z,16.00
2023-03-21T10:20:11.601Z,13.57
2023-03-21T10:22:40.824Z,14.80
2023-03-21T10:25:15.475Z,16.67
2023-03-21T10:27:46.253Z,13.00
2023-03-21T10:30:33.525Z,13.73
2023-03-21T10:33:05.893Z,17.10
2023-03-21T10:35:37.809Z,16.67
2023-03-21T10:38:08.600Z,20.47
2023-03-21T10:40:37.236Z,17.93
2023-03-21T10:43:22.423Z,17.63
2023-03-21T10:45:51.911Z,14.90
2023-03-21T10:48:20.980Z,22.70
2023-03-21T10:50:51.542Z,19.20
2023-03-21T10:53:23.641Z,13.43
2023-03-21T10:55:55.551Z,15.80
2023-03-21T10:58:32.309Z,16.27
2023-03-21T11:01:06.177Z,16.40
2023-03-21T11:03:43.857Z,15.03
2023-03-21T11:06:18.328Z,16.10
2023-03-21T11:08:50.112Z,15.20
2023-03-21T11:11:27.906Z,16.50
2023-03-21T11:14:07.161Z,17.33
2023-03-21T11:16:41.482Z,16.17
2023-03-21T11:19:16.834Z,15.23
2023-03-21T11:21:45.805Z,16.23
2023-03-21T11:24:16.530Z,14.83
2023-03-21T11:26:48.421Z,15.00
2023-03-21T11:29:27.668Z,14.30
2023-03-21T11:32:02.228Z,18.07
2023-03-21T11:34:40.817Z,14.73
2023-03-21T11:37:20.927Z,12.03
2023-03-21T11:39:57.695Z,15.23
2023-03-21T11:42:29.184Z,12.50
2023-03-21T11:45:04.692Z,12.17
2023-03-21T11:47:33.364Z,9.47
2023-03-21T11:50:05.243Z,11.20
2023-03-21T11:52:43.183Z,12.80
2023-03-21T11:55:32.818Z,10.47
2023-03-21T11:58:15.181Z,7.50
2023-03-21T12:00:54.923Z,10.67
2023-03-21T12:03:48.297Z,9.30
2023-03-21T12:06:26.824Z,9.93
2023-03-21T12:09:07.612Z,9.97
2023-03-21T12:11:45.966Z,8.50
2023-03-21T12:14:24.653Z,8.47
2023-03-21T12:17:08.298Z,9.93
2023-03-21T12:20:12.409Z,9.37
2023-03-21T12:22:54.518Z,9.27
2023-03-21T12:25:29.301Z,10.07
2023-03-21T12:28:07.327Z,11.67
2023-03-21T12:30:48.330Z,9.97
2023-03-21T12:33:43.287Z,10.63
2023-03-21T12:36:23.494Z,8.70
2023-03-21T12:39:00.838Z,8.27
2023-03-21T12:41:36.225Z,11.73
2023-03-21T12:44:08.958Z,9.73
2023-03-21T12:46:43.819Z,9.87
2023-03-21T12:49:19.718Z,11.10
2023-03-21T12:51:52.261Z,11.37
2023-03-21T12:54:29.102Z,7.33
2023-03-21T12:57:04.453Z,10.10
2023-03-21T12:59:43.039Z,9.13
2023-03-21T13:02:26.533Z,7.13
2023-03-21T13:05:12.326Z,9.83
2023-03-21T13:07:48.326Z,11.20
2023-03-21T13:10:21.263Z,11.53
2023-03-21T13:12:59.931Z,6.67
2023-03-21T13:15:52.645Z,5.67
2023-03-21T13:18:33.051Z,8.07
2023-03-21T13:21:10.514Z,6.07
2023-03-21T13:23:43.625Z,7.10
2023-03-21T13:26:13.422Z,6.77
2023-03-21T13:28:43.520Z,6.40
2023-03-21T13:31:21.571Z,6.47
2023-03-21T13:33:51.998Z,5.33
2023-03-21T13:36:27.974Z,7.30
2023-03-21T13:39:03.014Z,6.90
2023-03-21T13:41:36.409Z,8.57
2023-03-21T13:44:18.572Z,6.07
2023-03-21T13:46:55.092Z,4.67
2023-03-21T13:49:34.343Z,8.77
2023-03-21T13:52:27.647Z,13.07
2023-03-21T13:55:00.159Z,9.10
2023-03-21T13:57:40.227Z,7.87
2023-03-21T14:00:24.359Z,10.67
2023-03-21T14:02:58.354Z,7.67
2023-03-21T14:05:32.560Z,9.43
2023-03-21T14:08:15.408Z,8.70
2023-03-21T14:10:50.514Z,10.63
2023-03-21T14:13:22.604Z,11.27
2023-03-21T14:15:56.252Z,6.00
2023-03-21T14:18:52.287Z,7.40
2023-03-21T14:21:24.343Z,14.33
2023-03-21T14:24:07.302Z,7.43
2023-03-21T14:26:39.894Z,13.83
2023-03-21T14:29:25.195Z,7.30
2023-03-21T14:31:56.553Z,6.63
2023-03-21T14:34:26.654Z,8.43
2023-03-21T14:36:58.970Z,9.53
2023-03-21T14:39:33.708Z,7.63
2023-03-21T14:42:06.447Z,7.90
2023-03-21T14:44:53.270Z,4.90
2023-03-21T14:47:24.768Z,7.53
2023-03-21T14:49:54.541Z,5.93
2023-03-21T14:52:27.017Z,7.13
2023-03-21T14:54:58.199Z,4.73
2023-03-21T14:57:32.311Z,4.93
2023-03-21T15:00:06.735Z,7.23
2023-03-21T15:02:38.886Z,5.47
2023-03-21T15:05:18.698Z,5.97
2023-03-21T15:07:56.983Z,6.10
2023-03-21T15:10:29.480Z,7.60
2023-03-21T15:13:00.242Z,8.37
2023-03-21T15:15:33.726Z,6.87
2023-03-21T15:18:10.309Z,6.50
2023-03-21T15:20:40.468Z,6.80
2023-03-21T15:23:17.161Z,7.70
2023-03-21T15:25:47.737Z,6.90
2023-03-21T15:28:17.206Z,6.17
2023-03-21T15:30:52.096Z,4.73
2023-03-21T15:33:22.158Z,6.00
2023-03-21T15:35:55.865Z,6.77
2023-03-21T15:38:31.710Z,9.17
2023-03-21T15:41:27.564Z,5.97
2023-03-21T15:44:07.995Z,8.63
2023-03-21T15:46:43.191Z,8.87
2023-03-21T15:49:21.444Z,7.57
2023-03-21T15:51:54.720Z,6.43
2023-03-21T15:54:27.552Z,9.73
2023-03-21T15:57:01.520Z,8.97
2023-03-21T15:59:34.664Z,8.27
2023-03-21T16:02:04.732Z,10.27
2023-03-21T16:04:34.055Z,8.60
2023-03-21T16:07:05.710Z,17.33
2023-03-21T16:09:46.802Z,10.43
2023-03-21T16:12:18.962Z,11.20
2023-03-21T16:14:49.138Z,11.27
2023-03-21T16:17:38.146Z,11.07
2023-03-21T16:20:20.482Z,14.07
2023-03-21T16:22:49.852Z,13.83
2023-03-21T16:25:18.859Z,9.77
2023-03-21T16:27:49.932Z,14.60
2023-03-21T16:30:26.569Z,12.70
2023-03-21T16:32:55.309Z,14.57
2023-03-21T16:35:26.223Z,15.27
2023-03-21T16:37:55.506Z,14.73
2023-03-21T16:40:30.306Z,15.27
2023-03-21T16:42:59.109Z,17.87
2023-03-21T16:45:30.639Z,12.57
2023-03-21T16:48:00.587Z,16.17
2023-03-21T16:50:38.208Z,16.97
2023-03-21T16:53:07.256Z,14.57
2023-03-21T16:55:37.828Z,11.87
2023-03-21T16:58:06.910Z,8.23
2023-03-21T17:00:38.712Z,14.73
2023-03-21T17:03:15.675Z,11.40
2023-03-21T17:05:44.648Z,9.70
2023-03-21T17:08:20.371Z,6.37
2023-03-21T17:10:49.619Z,8.30
2023-03-21T17:13:18.847Z,9.00
2023-03-21T17:15:49.126Z,9.47
2023-03-21T17:18:18.295Z,5.77
2023-03-21T17:20:47.171Z,7.87
2023-03-21T17:23:15.960Z,8.60
2023-03-21T17:25:44.922Z,8.07
2023-03-21T17:28:14.008Z,5.87
2023-03-21T17:30:43.590Z,7.70
2023-03-21T17:33:16.423Z,6.30
2023-03-21T17:35:46.473Z,8.17
2023-03-21T17:38:18.580Z,5.87
2023-03-21T17:40:50.556Z,8.77
2023-03-21T17:43:24.114Z,9.20
2023-03-21T17:45:53.399Z,8.77
2023-03-21T17:48:23.934Z,8.30
2023-03-21T17:50:52.594Z,32.20
2023-03-21T17:53:22.555Z,11.20
2023-03-21T17:55:51.354Z,9.10
2023-03-21T17:58:20.028Z,11.73
2023-03-21T18:00:49.570Z,11.27
2023-03-21T18:03:19.619Z,13.30
2023-03-21T18:05:50.097Z,14.30
2023-03-21T18:08:19.285Z,11.53
2023-03-21T18:10:48.165Z,12.50
2023-03-21T18:13:17.278Z,7.73
2023-03-21T18:15:48.311Z,8.57
2023-03-21T18:18:18.256Z,7.10
2023-03-21T18:20:54.069Z,8.33
2023-03-21T18:23:26.127Z,11.00
2023-03-21T18:25:55.987Z,7.57
2023-03-21T18:28:25.465Z,7.97
2023-03-21T18:31:09.637Z,12.03
2023-03-21T18:33:45.415Z,9.40
2023-03-21T18:36:24.493Z,10.10
2023-03-21T18:38:59.024Z,8.87
2023-03-21T18:41:28.341Z,11.17
2023-03-21T18:44:05.235Z,11.03
2023-03-21T18:46:47.398Z,13.87
2023-03-21T18:52:15.013Z,9.83
2023-03-21T18:54:48.464Z,14.87
2023-03-21T18:57:35.775Z,13.60
2023-03-21T19:00:14.050Z,11.00
2023-03-21T19:02:46.873Z,11.77
2023-03-21T19:05:20.069Z,9.83
2023-03-21T19:07:52.095Z,8.90
2023-03-21T19:10:23.281Z,11.33
2023-03-21T19:12:54.927Z,12.07
2023-03-21T19:15:25.353Z,11.87
2023-03-21T19:20:46.770Z,10.77
2023-03-21T19:23:18.696Z,10.40
2023-03-21T19:25:49.096Z,13.50
2023-03-21T19:28:17.988Z,11.77
2023-03-21T19:30:50.128Z,9.27
2023-03-21T19:33:21.662Z,10.90
2023-03-21T19:36:10.803Z,11.67
2023-03-21T19:38:44.635Z,13.17
2023-03-21T19:41:13.828Z,13.17
2023-03-21T19:43:53.166Z,10.83
2023-03-21T19:46:25.569Z,9.67
2023-03-21T19:48:56.389Z,11.57
2023-03-21T19:51:30.633Z,13.73
2023-03-21T19:54:06.474Z,14.00
2023-03-21T19:56:37.657Z,16.00
2023-03-21T19:59:08.275Z,12.53
2023-03-21T20:01:37.837Z,12.67
2023-03-21T20:04:07.281Z,11.93
2023-03-21T20:06:36.620Z,12.47
2023-03-21T20:12:00.964Z,11.07
2023-03-21T20:14:29.974Z,10.63
2023-03-21T20:16:58.833Z,10.53
2023-03-21T20:19:28.205Z,10.17
2023-03-21T20:22:00.642Z,12.27
2023-03-21T20:24:32.946Z,12.17
2023-03-21T20:27:02.320Z,10.10
2023-03-21T20:32:21.279Z,10.37
2023-03-21T20:34:50.348Z,10.47
2023-03-21T20:37:20.962Z,9.40
2023-03-21T20:39:51.485Z,9.50
2023-03-21T20:42:21.424Z,10.07
2023-03-21T20:44:58.631Z,9.63
2023-03-21T20:47:28.560Z,11.00
2023-03-21T20:49:59.917Z,10.13
2023-03-21T20:53:01.219Z,10.37
2023-03-21T20:55:22.463Z,12.83
2023-03-21T20:57:54.881Z,12.57
2023-03-21T21:00:24.892Z,10.90
2023-03-21T21:02:53.603Z,11.47
2023-03-21T21:05:28.104Z,11.80
2023-03-21T21:07:59.427Z,13.10
2023-03-21T21:10:30.917Z,11.43
2023-03-21T21:12:59.956Z,13.67
2023-03-21T21:15:29.468Z,11.50
2023-03-21T21:18:07.819Z,11.10
2023-03-21T21:20:38.210Z,13.50
2023-03-21T21:23:10.521Z,13.70
2023-03-21T21:25:41.884Z,13.80
2023-03-21T21:28:12.052Z,14.40
2023-03-21T21:30:43.159Z,13.83
2023-03-21T21:33:14.775Z,14.77
2023-03-21T21:35:48.243Z,14.50
2023-03-21T21:38:19.460Z,12.17
2023-03-21T21:40:51.397Z,12.20
2023-03-21T21:43:20.805Z,12.77
2023-03-21T21:45:51.122Z,13.43
2023-03-21T21:48:21.773Z,14.20
2023-03-21T21:50:52.273Z,14.77
2023-03-21T21:53:22.084Z,11.67
2023-03-21T21:55:52.591Z,12.83
2023-03-21T21:58:21.748Z,12.93
2023-03-21T22:00:51.320Z,11.90
2023-03-21T22:03:22.607Z,11.77
2023-03-21T22:05:55.266Z,13.03
2023-03-21T22:08:24.242Z,12.47
2023-03-21T22:10:58.355Z,11.67
2023-03-21T22:13:31.882Z,10.17
2023-03-21T22:16:03.180Z,12.77
2023-03-21T22:18:37.085Z,12.30
2023-03-21T22:21:07.088Z,15.87
2023-03-21T22:23:35.884Z,11.87
2023-03-21T22:26:07.086Z,14.03
2023-03-21T22:28:36.531Z,11.87
2023-03-21T22:31:11.131Z,13.80
2023-03-21T22:33:40.114Z,16.63
2023-03-21T22:36:10.022Z,24.10
2023-03-21T22:38:39.046Z,34.80
2023-03-21T22:41:09.877Z,36.83
2023-03-21T22:43:38.867Z,23.87
2023-03-21T22:46:08.056Z,24.67
2023-03-21T22:48:37.189Z,26.97
2023-03-21T22:51:06.186Z,29.73
2023-03-21T22:53:35.636Z,27.57
2023-03-21T22:56:04.236Z,22.93
2023-03-21T22:58:35.061Z,21.27
2023-03-21T23:01:05.487Z,16.60
2023-03-21T23:03:34.424Z,17.33
2023-03-21T23:06:03.816Z,11.20
2023-03-21T23:08:32.539Z,9.77
2023-03-21T23:11:01.651Z,12.70
2023-03-21T23:13:31.591Z,15.73
2023-03-21T23:16:06.345Z,14.03
2023-03-21T23:18:37.165Z,9.00
2023-03-21T23:21:13.366Z,15.87
2023-03-21T23:23:43.959Z,12.50
2023-03-21T23:26:13.037Z,13.37
2023-03-21T23:28:42.071Z,23.80
2023-03-21T23:31:14.675Z,21.83
2023-03-21T23:33:43.274Z,14.97
2023-03-21T23:36:14.062Z,10.97
2023-03-21T23:38:43.079Z,11.87
2023-03-21T23:41:13.531Z,12.83
2023-03-21T23:43:42.770Z,11.43
2023-03-21T23:46:13.806Z,12.70
2023-03-21T23:48:43.129Z,11.10
2023-03-21T23:51:13.261Z,10.53
2023-03-21T23:53:42.090Z,11.83
2023-03-21T23:56:15.368Z,11.83
2023-03-21T23:58:44.094Z,12.40
